createdAt,value
2022-10-05T00:02:41.339Z,3.45
2022-10-05T00:05:45.439Z,3.45
2022-10-05T00:08:47.631Z,3.20
2022-10-05T00:11:50.929Z,3.22
2022-10-05T00:14:57.825Z,4.00
2022-10-05T00:18:02.963Z,3.62
2022-10-05T00:21:25.553Z,3.10
2022-10-05T00:24:27.714Z,2.62
2022-10-05T00:27:36.672Z,2.97
2022-10-05T00:30:38.876Z,3.12
2022-10-05T00:33:41.022Z,2.87
2022-10-05T00:36:43.937Z,3.35
2022-10-05T00:39:46.407Z,2.60
2022-10-05T00:42:54.334Z,2.55
2022-10-05T00:46:07.803Z,2.50
2022-10-05T00:50:05.663Z,2.90
2022-10-05T00:53:29.733Z,3.20
2022-10-05T00:56:41.931Z,2.70
2022-10-05T01:00:07.085Z,3.50
2022-10-05T01:03:23.671Z,2.50
2022-10-05T01:06:33.437Z,2.42
2022-10-05T01:09:51.151Z,2.58
2022-10-05T01:13:11.592Z,2.53
2022-10-05T01:16:29.718Z,2.08
2022-10-05T01:19:49.961Z,2.30
2022-10-05T01:23:08.585Z,2.47
2022-10-05T01:26:55.587Z,2.20
2022-10-05T01:30:07.130Z,2.10
2022-10-05T01:36:36.823Z,2.40
2022-10-05T01:39:58.498Z,2.85
2022-10-05T01:46:25.353Z,2.40
2022-10-05T01:49:33.729Z,2.80
2022-10-05T01:52:50.842Z,2.60
2022-10-05T01:56:28.979Z,2.60
2022-10-05T02:00:04.724Z,2.85
2022-10-05T02:03:17.105Z,3.78
2022-10-05T02:06:28.356Z,5.60
2022-10-05T02:09:34.437Z,4.70
2022-10-05T02:12:38.051Z,4.75
2022-10-05T02:15:58.324Z,4.10
2022-10-05T02:19:11.943Z,2.90
2022-10-05T02:22:24.569Z,3.10
2022-10-05T02:25:30.547Z,3.87
2022-10-05T02:28:52.675Z,3.40
2022-10-05T02:31:57.866Z,3.00
2022-10-05T02:35:06.589Z,3.05
2022-10-05T02:38:24.454Z,3.03
2022-10-05T02:42:02.192Z,3.03
2022-10-05T02:45:07.413Z,2.80
2022-10-05T02:48:12.460Z,2.78
2022-10-05T02:51:24.722Z,3.10
2022-10-05T02:54:26.907Z,2.97
2022-10-05T02:57:36.492Z,3.03
2022-10-05T03:01:00.742Z,2.92
2022-10-05T03:04:15.333Z,2.40
2022-10-05T03:07:33.594Z,2.75
2022-10-05T03:10:39.986Z,2.90
2022-10-05T03:14:05.160Z,2.80
2022-10-05T03:17:15.050Z,2.62
2022-10-05T03:20:23.478Z,2.80
2022-10-05T03:23:34.618Z,3.30
2022-10-05T03:26:59.607Z,2.53
2022-10-05T03:30:17.797Z,2.65
2022-10-05T03:33:25.666Z,2.62
2022-10-05T03:36:52.226Z,2.53
2022-10-05T03:40:07.421Z,2.78
2022-10-05T03:43:46.939Z,3.40
2022-10-05T03:47:09.006Z,3.00
2022-10-05T03:50:32.641Z,3.05
2022-10-05T03:53:56.916Z,3.20
2022-10-05T03:57:07.145Z,3.35
2022-10-05T04:00:16.190Z,3.20
2022-10-05T04:03:35.816Z,3.30
2022-10-05T04:06:46.785Z,3.40
2022-10-05T04:09:51.298Z,3.70
2022-10-05T04:13:18.764Z,3.50
2022-10-05T04:16:31.633Z,3.30
2022-10-05T04:19:39.671Z,3.33
2022-10-05T04:23:11.554Z,3.03
2022-10-05T04:26:18.977Z,3.30
2022-10-05T04:29:38.459Z,3.90
2022-10-05T04:32:57.524Z,3.87
2022-10-05T04:36:08.947Z,4.72
2022-10-05T04:39:24.503Z,4.32
2022-10-05T04:43:09.981Z,4.25
2022-10-05T04:46:36.823Z,3.83
2022-10-05T04:49:57.880Z,3.87
2022-10-05T04:53:25.786Z,4.75
2022-10-05T04:56:38.949Z,3.75
2022-10-05T04:59:53.233Z,3.20
2022-10-05T05:03:13.469Z,3.87
2022-10-05T05:06:33.170Z,5.05
2022-10-05T05:10:04.513Z,4.60
2022-10-05T05:13:30.553Z,4.10
2022-10-05T05:16:34.178Z,4.57
2022-10-05T05:19:50.724Z,5.32
2022-10-05T05:23:47.298Z,4.50
2022-10-05T05:27:17.012Z,5.25
2022-10-05T05:30:21.418Z,5.75
2022-10-05T05:33:52.608Z,6.12
2022-10-05T05:37:13.319Z,7.10
2022-10-05T05:40:39.461Z,5.32
2022-10-05T05:43:44.626Z,5.22
2022-10-05T05:47:03.596Z,5.35
2022-10-05T05:50:10.393Z,5.30
2022-10-05T05:53:20.914Z,6.15
2022-10-05T05:56:46.209Z,5.07
2022-10-05T06:00:07.628Z,7.53
2022-10-05T06:03:15.923Z,10.00
2022-10-05T06:06:18.783Z,9.70
2022-10-05T06:09:22.727Z,9.05
2022-10-05T06:12:30.241Z,7.47
2022-10-05T06:15:40.515Z,7.12
2022-10-05T06:18:46.944Z,8.48
2022-10-05T06:22:12.851Z,8.65
2022-10-05T06:25:30.025Z,7.10
2022-10-05T06:28:32.564Z,20.33
2022-10-05T06:31:49.396Z,22.48
2022-10-05T06:35:01.796Z,12.68
2022-10-05T06:38:21.066Z,9.25
2022-10-05T06:41:28.948Z,6.68
2022-10-05T06:44:43.381Z,9.07
2022-10-05T06:47:51.542Z,10.20
2022-10-05T06:51:11.834Z,6.82
2022-10-05T06:54:38.044Z,6.57
2022-10-05T06:57:58.856Z,6.28
2022-10-05T07:01:17.760Z,6.70
2022-10-05T07:05:09.549Z,8.77
2022-10-05T07:08:23.338Z,6.70
2022-10-05T07:11:40.800Z,3.65
2022-10-05T07:14:51.789Z,3.33
2022-10-05T07:18:06.068Z,4.10
2022-10-05T07:21:40.005Z,3.30
2022-10-05T07:24:55.230Z,3.20
2022-10-05T07:28:06.494Z,2.62
2022-10-05T07:31:37.839Z,2.33
2022-10-05T07:34:59.116Z,2.75
2022-10-05T07:38:08.675Z,1.90
2022-10-05T07:41:20.249Z,2.10
2022-10-05T07:44:29.926Z,1.80
2022-10-05T07:47:52.186Z,2.28
2022-10-05T07:51:00.178Z,2.28
2022-10-05T07:54:02.263Z,2.42
2022-10-05T07:57:15.512Z,2.65
2022-10-05T08:00:22.398Z,2.42
2022-10-05T08:03:39.846Z,2.40
2022-10-05T08:07:09.939Z,2.60
2022-10-05T08:10:45.993Z,3.40
2022-10-05T08:14:17.212Z,2.83
2022-10-05T08:17:37.673Z,2.85
2022-10-05T08:20:44.916Z,2.53
2022-10-05T08:23:58.958Z,2.30
2022-10-05T08:27:10.202Z,2.00
2022-10-05T08:30:14.060Z,2.40
2022-10-05T08:33:17.678Z,2.90
2022-10-05T08:36:27.532Z,2.75
2022-10-05T08:39:34.241Z,2.53
2022-10-05T08:43:01.770Z,2.33
2022-10-05T08:46:41.648Z,2.85
2022-10-05T08:50:16.043Z,2.80
2022-10-05T08:53:36.646Z,2.50
2022-10-05T08:56:48.567Z,2.40
2022-10-05T08:59:58.175Z,2.30
2022-10-05T09:03:18.906Z,2.50
2022-10-05T09:06:42.499Z,2.28
2022-10-05T09:10:01.421Z,5.30
2022-10-05T09:13:17.353Z,2.87
2022-10-05T09:16:44.534Z,2.30
2022-10-05T09:20:08.337Z,2.03
2022-10-05T09:23:16.540Z,2.35
2022-10-05T09:26:40.416Z,4.05
2022-10-05T09:30:10.600Z,2.53
2022-10-05T09:33:13.654Z,2.47
2022-10-05T09:36:34.391Z,4.32
2022-10-05T09:40:03.294Z,3.72
2022-10-05T09:43:09.028Z,2.25
2022-10-05T09:46:20.370Z,1.80
2022-10-05T09:52:44.320Z,3.10
2022-10-05T09:56:44.149Z,2.45
2022-10-05T10:03:18.687Z,2.97
2022-10-05T10:06:29.827Z,3.00
2022-10-05T10:09:43.397Z,2.80
2022-10-05T10:13:25.002Z,3.53
2022-10-05T10:20:20.447Z,2.65
2022-10-05T10:23:34.426Z,3.00
2022-10-05T10:26:56.983Z,2.83
2022-10-05T10:30:19.056Z,2.70
2022-10-05T10:33:36.792Z,2.92
2022-10-05T10:37:12.574Z,3.00
2022-10-05T10:40:26.079Z,2.92
2022-10-05T10:43:50.600Z,4.25
2022-10-05T10:47:30.418Z,3.35
2022-10-05T10:50:48.784Z,2.80
2022-10-05T10:54:02.559Z,2.55
2022-10-05T10:57:10.711Z,1.77
2022-10-05T11:00:44.202Z,2.53
2022-10-05T11:04:42.140Z,1.65
2022-10-05T11:08:15.767Z,2.20
2022-10-05T11:11:30.950Z,3.22
2022-10-05T11:14:46.426Z,2.10
2022-10-05T11:17:56.498Z,2.17
2022-10-05T11:21:20.897Z,2.58
2022-10-05T11:24:58.871Z,3.62
2022-10-05T11:28:38.411Z,3.00
2022-10-05T11:32:08.071Z,3.00
2022-10-05T11:35:55.114Z,3.10
2022-10-05T11:39:08.929Z,2.42
2022-10-05T11:42:11.035Z,4.03
2022-10-05T11:45:22.354Z,3.22
2022-10-05T11:51:51.224Z,3.40
2022-10-05T11:55:11.349Z,3.40
2022-10-05T11:58:24.706Z,3.12
2022-10-05T12:01:45.004Z,3.05
2022-10-05T12:05:15.985Z,3.22
2022-10-05T12:08:44.337Z,2.45
2022-10-05T12:12:15.637Z,2.97
2022-10-05T12:15:39.545Z,2.60
2022-10-05T12:18:47.222Z,3.00
2022-10-05T12:21:52.572Z,2.80
2022-10-05T12:25:15.126Z,3.72
2022-10-05T12:28:23.890Z,4.40
2022-10-05T12:31:52.476Z,3.28
2022-10-05T12:35:48.047Z,3.28
2022-10-05T12:39:13.446Z,4.20
2022-10-05T12:42:24.693Z,4.32
2022-10-05T12:48:56.272Z,3.37
2022-10-05T12:52:00.757Z,2.50
2022-10-05T12:55:13.520Z,3.00
2022-10-05T12:58:28.320Z,3.25
2022-10-05T13:01:39.181Z,3.00
2022-10-05T13:04:44.331Z,3.60
2022-10-05T13:08:08.531Z,3.95
2022-10-05T13:11:36.383Z,4.25
2022-10-05T13:15:22.536Z,4.47
2022-10-05T13:18:49.861Z,3.15
2022-10-05T13:21:55.208Z,3.00
2022-10-05T13:25:32.948Z,2.78
2022-10-05T13:28:44.654Z,2.45
2022-10-05T13:31:51.221Z,2.65
2022-10-05T13:35:17.321Z,2.95
2022-10-05T13:38:22.192Z,2.62
2022-10-05T13:41:46.093Z,2.95
2022-10-05T13:44:51.493Z,2.60
2022-10-05T13:48:15.626Z,2.78
2022-10-05T13:51:35.078Z,2.80
2022-10-05T13:54:37.659Z,2.40
2022-10-05T13:57:51.641Z,2.40
2022-10-05T14:00:59.844Z,2.53
2022-10-05T14:04:07.027Z,3.28
2022-10-05T14:07:30.167Z,2.08
2022-10-05T14:10:42.916Z,2.50
2022-10-05T14:13:46.870Z,4.80
2022-10-05T14:17:00.321Z,2.58
2022-10-05T14:20:20.301Z,2.53
2022-10-05T14:23:25.647Z,2.28
2022-10-05T14:26:35.908Z,2.10
2022-10-05T14:29:38.819Z,2.30
2022-10-05T14:32:47.284Z,2.83
2022-10-05T14:35:54.716Z,2.42
2022-10-05T14:39:00.558Z,3.05
2022-10-05T14:42:13.901Z,3.22
2022-10-05T14:45:18.948Z,2.78
2022-10-05T14:48:21.950Z,2.58
2022-10-05T14:51:31.955Z,2.65
2022-10-05T14:54:47.945Z,2.72
2022-10-05T14:58:23.803Z,2.90
2022-10-05T15:01:39.263Z,2.67
2022-10-05T15:04:46.305Z,3.45
2022-10-05T15:07:49.585Z,2.75
2022-10-05T15:11:06.474Z,2.22
2022-10-05T15:14:22.084Z,2.72
2022-10-05T15:17:28.422Z,2.47
2022-10-05T15:20:49.339Z,2.80
2022-10-05T15:24:05.269Z,2.55
2022-10-05T15:27:15.952Z,2.95
2022-10-05T15:30:18.591Z,3.00
2022-10-05T15:33:43.214Z,2.50
2022-10-05T15:36:50.213Z,2.45
2022-10-05T15:39:55.718Z,2.70
2022-10-05T15:43:03.944Z,2.42
2022-10-05T15:46:17.375Z,5.62
2022-10-05T15:49:37.734Z,24.02
2022-10-05T15:52:58.945Z,22.25
2022-10-05T15:56:27.024Z,8.95
2022-10-05T15:59:41.400Z,8.68
2022-10-05T16:03:19.663Z,5.32
2022-10-05T16:06:48.729Z,9.23
2022-10-05T16:10:03.921Z,10.05
2022-10-05T16:13:27.073Z,23.40
2022-10-05T16:16:37.486Z,16.75
2022-10-05T16:19:48.046Z,12.93
2022-10-05T16:22:59.754Z,8.23
2022-10-05T16:26:11.613Z,8.25
2022-10-05T16:29:33.010Z,5.40
2022-10-05T16:36:04.341Z,6.30
2022-10-05T16:39:26.665Z,4.30
2022-10-05T16:43:13.266Z,4.55
2022-10-05T16:46:30.951Z,4.85
2022-10-05T16:49:39.092Z,4.80
2022-10-05T16:52:42.927Z,4.40
2022-10-05T16:55:48.385Z,4.57
2022-10-05T16:58:53.328Z,4.10
2022-10-05T17:02:29.422Z,3.72
2022-10-05T17:05:34.886Z,4.20
2022-10-05T17:09:01.533Z,4.00
2022-10-05T17:12:38.278Z,3.50
2022-10-05T17:16:00.810Z,3.45
2022-10-05T17:19:21.100Z,4.00
2022-10-05T17:22:46.572Z,3.30
2022-10-05T17:26:14.900Z,5.00
2022-10-05T17:29:24.851Z,4.82
2022-10-05T17:32:36.255Z,4.15
2022-10-05T17:38:53.085Z,3.83
2022-10-05T17:42:27.725Z,3.62
2022-10-05T17:45:29.990Z,3.83
2022-10-05T17:48:50.365Z,9.50
2022-10-05T17:52:11.654Z,15.55
2022-10-05T17:55:28.119Z,22.05
2022-10-05T17:58:30.231Z,12.27
2022-10-05T18:01:34.901Z,13.80
2022-10-05T18:04:42.232Z,19.80
2022-10-05T18:08:13.154Z,24.27
2022-10-05T18:11:36.674Z,29.12
2022-10-05T18:14:55.113Z,7.28
2022-10-05T18:18:33.259Z,16.98
2022-10-05T18:21:38.164Z,15.43
2022-10-05T18:24:53.086Z,8.98
2022-10-05T18:28:22.778Z,13.00
2022-10-05T18:31:28.411Z,14.32
2022-10-05T18:35:02.030Z,7.15
2022-10-05T18:38:31.307Z,9.32
2022-10-05T18:42:02.855Z,15.75
2022-10-05T18:48:47.900Z,9.32
2022-10-05T18:51:57.659Z,11.52
2022-10-05T18:55:10.664Z,10.45
2022-10-05T18:58:25.989Z,8.63
2022-10-05T19:02:02.728Z,11.82
2022-10-05T19:05:46.849Z,10.77
2022-10-05T19:09:20.562Z,12.37
2022-10-05T19:12:35.956Z,12.93
2022-10-05T19:15:44.374Z,9.05
2022-10-05T19:19:07.361Z,9.00
2022-10-05T19:22:37.483Z,7.72
2022-10-05T19:25:46.220Z,9.95
2022-10-05T19:29:07.904Z,12.85
2022-10-05T19:32:46.833Z,14.95
2022-10-05T19:35:58.254Z,10.10
2022-10-05T19:39:10.491Z,8.70
2022-10-05T19:42:25.087Z,10.43
2022-10-05T19:45:33.622Z,9.45
2022-10-05T19:48:44.518Z,10.20
2022-10-05T19:51:49.294Z,10.25
2022-10-05T19:55:24.203Z,10.88
2022-10-05T19:58:28.763Z,10.57
2022-10-05T20:01:36.497Z,8.52
2022-10-05T20:04:44.642Z,7.65
2022-10-05T20:07:46.924Z,8.15
2022-10-05T20:11:11.246Z,6.68
2022-10-05T20:14:16.798Z,6.12
2022-10-05T20:17:47.690Z,6.43
2022-10-05T20:20:50.219Z,6.40
2022-10-05T20:24:07.796Z,5.70
2022-10-05T20:27:46.592Z,5.82
2022-10-05T20:30:48.735Z,6.30
2022-10-05T20:33:50.914Z,7.82
2022-10-05T20:36:53.088Z,6.47
2022-10-05T20:39:55.253Z,5.80
2022-10-05T20:42:58.431Z,5.47
2022-10-05T20:46:00.596Z,5.72
2022-10-05T20:49:03.215Z,6.45
2022-10-05T20:52:06.331Z,5.45
2022-10-05T20:55:11.319Z,5.80
2022-10-05T20:58:13.502Z,6.00
2022-10-05T21:01:19.597Z,5.22
2022-10-05T21:04:24.044Z,5.35
2022-10-05T21:07:26.312Z,5.18
2022-10-05T21:10:28.439Z,5.00
2022-10-05T21:13:30.579Z,4.68
2022-10-05T21:16:34.074Z,5.05
2022-10-05T21:19:40.417Z,5.55
2022-10-05T21:22:42.740Z,5.62
2022-10-05T21:25:45.338Z,5.97
2022-10-05T21:28:47.532Z,5.70
2022-10-05T21:31:49.812Z,5.00
2022-10-05T21:34:52.067Z,5.12
2022-10-05T21:37:54.250Z,5.35
2022-10-05T21:40:56.502Z,5.80
2022-10-05T21:43:58.645Z,6.12
2022-10-05T21:47:01.207Z,6.43
2022-10-05T21:50:05.229Z,5.80
2022-10-05T21:53:09.316Z,7.10
2022-10-05T21:56:14.825Z,5.60
2022-10-05T21:59:19.262Z,6.03
2022-10-05T22:02:21.431Z,4.80
2022-10-05T22:05:23.618Z,4.78
2022-10-05T22:08:28.728Z,5.35
2022-10-05T22:11:31.668Z,6.80
2022-10-05T22:14:33.818Z,9.15
2022-10-05T22:17:36.192Z,19.85
2022-10-05T22:20:38.457Z,21.50
2022-10-05T22:23:42.312Z,9.45
2022-10-05T22:26:46.788Z,8.48
2022-10-05T22:29:49.247Z,10.60
2022-10-05T22:32:51.526Z,7.95
2022-10-05T22:35:54.161Z,7.65
2022-10-05T22:38:56.442Z,6.90
2022-10-05T22:41:58.787Z,6.60
2022-10-05T22:45:01.007Z,7.30
2022-10-05T22:48:03.808Z,6.12
2022-10-05T22:51:06.650Z,5.20
2022-10-05T22:58:31.566Z,5.82
2022-10-05T23:01:33.962Z,5.70
2022-10-05T23:04:36.418Z,5.20
2022-10-05T23:07:41.693Z,5.55
2022-10-05T23:10:43.965Z,5.35
2022-10-05T23:13:46.252Z,4.95
2022-10-05T23:16:48.569Z,4.70
2022-10-05T23:19:50.874Z,4.68
2022-10-05T23:22:53.064Z,4.53
2022-10-05T23:26:01.927Z,4.78
2022-10-05T23:29:04.216Z,4.80
2022-10-05T23:32:06.443Z,4.43
2022-10-05T23:35:10.472Z,4.32
2022-10-05T23:38:12.644Z,4.12
2022-10-05T23:41:16.010Z,3.90
2022-10-05T23:44:18.425Z,4.87
2022-10-05T23:47:20.580Z,3.92
2022-10-05T23:50:25.074Z,4.12
2022-10-05T23:53:27.211Z,4.40
2022-10-05T23:56:29.377Z,3.87
2022-10-05T23:59:31.554Z,3.80
